KAIO

Details ICAO KAIO
Name ATLANTIC MUNI
Region United States
Timezone America/Chicago (UTC-5.0)
Plans Departing 5
Arriving 1
Stats Elevation 1,182 ft / 360 m (AMSL)
Location 41.407629° -95.047714°
Runways 2
Magnetic Variation 1.849° E
Sunrise 2018-05-26 10:53:47 UTC / 2018-05-26 05:53:47 Local
Sunset 2018-05-27 01:43:37 UTC / 2018-05-26 20:43:37 Local
Advertisement - Login to hide

Runways

ID Width Length Bearing (true) Bearing (mag) Surface Threshold Offset Overrun Length
12 75 ft / 23 m 3,907 ft / 1,191 m 123.13° 121.28° Asphalt 855 ft / 261 m 500 ft / 152 m
17 185 ft / 56 m 1,903 ft / 580 m 179.56° 177.71° Grass 0 ft / 0 m 0 ft / 0 m
30 75 ft / 23 m 3,907 ft / 1,191 m 303.14° 301.29° Asphalt 0 ft / 0 m 0 ft / 0 m
35 185 ft / 56 m 1,903 ft / 580 m 359.56° 357.71° Grass 0 ft / 0 m 0 ft / 0 m

Map

Weather


0- 5 10 15 20 25 30 35+ Temperature / ° C

Clouds and Precipitation
Forecast for 2018-05-26 12:00 UTC. Updated 3 hours ago

Ground ~20,000 ft ~40,000 ft Winds

METAR

KAIO 261355Z AUTO 00000KT 10SM CLR 26/19 A2979 RMK AO2

TAF

Not found

Frequencies

Recorded 127.82 MHz AWOS 3
Unicom 122.70 MHz CTAF/UNICOM
Warning: Do not use this data for real-world aviation or navigation. No guarantee of current accuracy is given.